Time;durP1;ratioP1;P1;durP2;ratioP2;P2;SDS_P1;SDS_P2;PMS_P1;PMS_P2;Temp;Humidity;BMP_temperature;BMP_pressure;BME280_temperature;BME280_humidity;BME280_pressure;Samples;Min_cycle;Max_cycle;Signal;HPM_P1;HPM_P2
2023/07/01 00:01:42;;;;;;;2.92;2.03;;;16.30;99.90;;;15.96;100.00;96840.34;5041343;28;20056;-37
2023/07/01 00:04:08;;;;;;;2.75;1.90;;;16.20;99.90;;;15.89;100.00;96849.69;5034236;28;20497;-37
2023/07/01 00:06:34;;;;;;;4.35;2.00;;;16.20;99.90;;;15.86;100.00;96846.41;5037597;28;20033;-37
2023/07/01 00:08:59;;;;;;;7.07;2.30;;;16.10;99.90;;;15.85;100.00;96837.56;5039265;28;20033;-37
2023/07/01 00:11:25;;;;;;;3.65;2.00;;;16.10;99.90;;;15.78;100.00;96830.97;5039744;28;20033;-37
2023/07/01 00:13:51;;;;;;;6.28;2.08;;;16.10;99.90;;;15.75;100.00;96828.50;5042684;28;20519;-37
2023/07/01 00:16:17;;;;;;;4.45;2.00;;;16.00;99.90;;;15.73;100.00;96835.69;5039312;28;20049;-37
2023/07/01 00:18:43;;;;;;;3.08;2.13;;;16.00;99.90;;;15.62;100.00;96820.47;5039258;28;20585;-37
2023/07/01 00:21:09;;;;;;;2.78;1.98;;;16.00;99.90;;;15.64;100.00;96829.19;5035555;28;20648;-37
2023/07/01 00:23:35;;;;;;;3.97;1.90;;;16.00;99.90;;;15.59;100.00;96833.94;5042695;28;20045;-37
2023/07/01 00:26:01;;;;;;;3.50;2.10;;;15.90;99.90;;;15.61;100.00;96834.69;5038409;28;20116;-37
2023/07/01 00:28:28;;;;;;;3.05;1.77;;;15.90;99.90;;;15.56;100.00;96836.81;5040257;28;20056;-37
2023/07/01 00:30:53;;;;;;;2.70;1.80;;;15.80;99.90;;;15.48;100.00;96834.66;5037924;28;20063;-37
2023/07/01 00:33:19;;;;;;;2.42;2.00;;;15.80;99.90;;;15.45;100.00;96829.53;5034761;28;20524;-37
2023/07/01 00:35:46;;;;;;;3.85;1.92;;;15.70;99.90;;;15.41;100.00;96826.22;5039633;28;20036;-37
2023/07/01 00:38:12;;;;;;;3.90;2.10;;;15.70;99.90;;;15.35;100.00;96834.63;5035665;28;20116;-37
2023/07/01 00:40:37;;;;;;;3.15;1.70;;;15.70;99.90;;;15.32;100.00;96840.13;5042448;28;20032;-37
2023/07/01 00:43:03;;;;;;;2.70;2.03;;;15.60;99.90;;;15.28;100.00;96839.47;5038228;28;20370;-37
2023/07/01 00:45:30;;;;;;;3.63;1.73;;;15.60;99.90;;;15.26;100.00;96835.22;5035826;28;20045;-37
2023/07/01 00:47:56;;;;;;;5.15;1.83;;;15.50;99.90;;;15.23;100.00;96825.63;5041522;28;20032;-37
2023/07/01 00:50:21;;;;;;;2.50;1.92;;;15.50;99.90;;;15.21;100.00;96826.69;5042477;28;20333;-37
2023/07/01 00:52:47;;;;;;;2.70;1.95;;;15.50;99.90;;;15.12;100.00;96822.81;5044273;28;20512;-37
2023/07/01 00:55:13;;;;;;;3.30;1.73;;;15.40;99.90;;;15.07;100.00;96815.16;5032365;28;20302;-37
2023/07/01 00:57:39;;;;;;;2.40;1.58;;;15.40;99.90;;;15.06;100.00;96829.38;5043814;28;20056;-37
2023/07/01 01:00:10;;;;;;;5.50;1.60;;;15.40;99.90;;;15.00;100.00;96821.81;5040301;28;20036;-37
2023/07/01 01:02:55;;;;;;;4.40;2.08;;;15.30;99.90;;;15.03;100.00;96820.75;5046401;28;20024;-37
2023/07/01 01:05:30;;;;;;;3.33;1.80;;;15.30;99.90;;;14.92;100.00;96807.31;5036026;28;20121;-37
2023/07/01 01:08:03;;;;;;;2.40;1.60;;;15.30;99.90;;;14.90;100.00;96807.41;5038470;28;20033;-37
2023/07/01 01:10:33;;;;;;;3.28;1.90;;;15.20;99.90;;;14.95;100.00;96823.91;5038594;28;20036;-37
2023/07/01 01:13:03;;;;;;;3.38;1.92;;;15.20;99.90;;;14.91;100.00;96824.19;5042321;28;20495;-37
2023/07/01 01:15:29;;;;;;;2.25;1.83;;;15.10;99.90;;;14.81;100.00;96813.31;5038960;28;20028;-37
2023/07/01 01:17:59;;;;;;;3.08;1.75;;;15.20;99.90;;;14.78;100.00;96819.66;5045503;28;20060;-37
2023/07/01 01:20:30;;;;;;;2.42;1.88;;;15.10;99.90;;;14.75;100.00;96824.31;5042333;28;20047;-37
2023/07/01 01:23:01;;;;;;;5.68;2.15;;;15.00;99.90;;;14.69;100.00;96828.19;5042088;28;20115;-37
2023/07/01 01:25:43;;;;;;;3.72;1.85;;;15.00;99.90;;;14.68;100.00;96829.16;5040127;28;20467;-37
2023/07/01 01:28:09;;;;;;;6.32;2.00;;;14.90;99.90;;;14.63;100.00;96825.94;5043218;28;20163;-37
2023/07/01 01:30:36;;;;;;;2.67;1.77;;;14.90;99.90;;;14.56;100.00;96824.59;5042903;28;20140;-37
2023/07/01 01:33:02;;;;;;;2.55;1.90;;;14.80;99.90;;;14.39;100.00;96801.75;5048982;28;20566;-37
2023/07/01 01:35:28;;;;;;;3.00;2.00;;;14.80;99.90;;;14.51;100.00;96825.72;5039939;28;20036;-37
2023/07/01 01:38:07;;;;;;;3.10;1.83;;;14.80;99.90;;;14.45;100.00;96827.91;5043626;28;20029;-37
2023/07/01 01:40:53;;;;;;;3.25;2.10;;;14.80;99.90;;;14.41;100.00;96818.41;5045378;28;20116;-37
2023/07/01 01:43:38;;;;;;;3.92;2.35;;;14.70;99.90;;;14.43;100.00;96817.38;5039690;28;20024;-37
2023/07/01 01:46:07;;;;;;;4.13;2.10;;;14.70;99.90;;;14.39;100.00;96823.84;5035658;28;20056;-37
2023/07/01 01:48:33;;;;;;;3.53;2.17;;;14.70;99.90;;;14.35;100.00;96818.81;5038263;28;20048;-37
2023/07/01 01:51:00;;;;;;;4.15;2.35;;;14.70;99.90;;;14.30;100.00;96817.28;5044320;28;20024;-37
2023/07/01 01:53:28;;;;;;;2.50;2.08;;;14.60;99.90;;;14.20;100.00;96802.88;5039139;28;20797;-37
2023/07/01 01:55:55;;;;;;;3.83;2.15;;;14.60;99.90;;;14.23;100.00;96812.44;5039415;28;20120;-37
2023/07/01 01:58:21;;;;;;;2.78;2.00;;;14.50;99.90;;;14.23;100.00;96821.25;5040802;28;20133;-37
2023/07/01 02:00:47;;;;;;;4.35;2.58;;;14.50;99.90;;;14.18;100.00;96804.78;5040684;28;20478;-37
2023/07/01 02:03:13;;;;;;;3.70;2.13;;;14.50;99.90;;;14.11;100.00;96814.91;5035406;28;20680;-37
2023/07/01 02:05:39;;;;;;;3.28;2.20;;;14.50;99.90;;;14.08;100.00;96808.91;5045419;28;20383;-37
2023/07/01 02:08:05;;;;;;;3.08;1.88;;;14.40;99.90;;;14.04;100.00;96812.72;5040470;28;20624;-37
2023/07/01 02:10:32;;;;;;;4.90;2.15;;;14.40;99.90;;;13.91;100.00;96796.69;5022532;28;20093;-37
2023/07/01 02:12:58;;;;;;;3.20;2.30;;;14.30;99.90;;;13.96;100.00;96801.72;5036868;28;20043;-37
2023/07/01 02:15:24;;;;;;;3.72;2.00;;;14.30;99.90;;;13.96;100.00;96805.19;5028267;28;20032;-37
2023/07/01 02:17:49;;;;;;;3.08;2.30;;;14.30;99.90;;;13.94;100.00;96802.66;5041239;28;20048;-37
2023/07/01 02:20:16;;;;;;;2.75;2.10;;;14.30;99.90;;;13.95;100.00;96798.22;5040839;28;20043;-37
2023/07/01 02:22:41;;;;;;;2.22;1.90;;;14.30;99.90;;;13.94;100.00;96797.38;5039492;28;20029;-37
2023/07/01 02:25:08;;;;;;;2.72;2.22;;;14.20;99.90;;;13.89;100.00;96791.47;5039284;28;20048;-37
2023/07/01 02:27:33;;;;;;;2.75;2.30;;;14.20;99.90;;;13.89;100.00;96799.44;5043532;28;20536;-37
2023/07/01 02:30:00;;;;;;;3.33;2.47;;;14.20;99.90;;;13.75;100.00;96771.09;5042150;28;20072;-37
2023/07/01 02:32:25;;;;;;;4.93;2.40;;;14.20;99.90;;;13.90;100.00;96794.97;5037028;28;20468;-37
2023/07/01 02:34:51;;;;;;;3.55;2.30;;;14.20;99.90;;;13.89;100.00;96793.25;5039160;28;20120;-37
2023/07/01 02:37:17;;;;;;;2.90;2.22;;;14.20;99.90;;;13.86;100.00;96791.66;5033838;28;20032;-37
2023/07/01 02:39:45;;;;;;;3.88;2.08;;;14.20;99.90;;;13.82;100.00;96789.28;5041385;28;20060;-37
2023/07/01 02:42:11;;;;;;;4.00;2.33;;;14.10;99.90;;;13.75;100.00;96786.16;5032714;28;20098;-37
2023/07/01 02:44:37;;;;;;;4.50;2.22;;;14.10;99.90;;;13.77;100.00;96797.50;5029067;28;20490;-37
2023/07/01 02:47:03;;;;;;;3.03;2.40;;;14.10;99.90;;;13.75;100.00;96797.59;5029971;28;20052;-37
2023/07/01 02:49:29;;;;;;;3.40;2.20;;;14.10;99.90;;;13.74;100.00;96793.22;5040393;28;20107;-37
2023/07/01 02:51:54;;;;;;;3.13;2.30;;;14.10;99.90;;;13.73;100.00;96788.88;5042253;28;20027;-37
2023/07/01 02:54:20;;;;;;;2.80;2.28;;;14.10;99.90;;;13.75;100.00;96794.94;5035961;28;20639;-37
2023/07/01 02:56:46;;;;;;;3.53;2.28;;;14.00;99.90;;;13.68;100.00;96782.16;5036242;28;20215;-37
2023/07/01 02:59:11;;;;;;;5.53;2.97;;;14.10;99.90;;;13.78;100.00;96796.56;5042149;28;20405;-37
2023/07/01 03:01:37;;;;;;;3.30;2.40;;;14.10;99.90;;;13.79;100.00;96787.66;5037990;28;20021;-37
2023/07/01 03:04:06;;;;;;;5.57;2.55;;;14.10;99.90;;;13.76;100.00;96790.50;5040365;28;20033;-37
2023/07/01 03:06:35;;;;;;;6.13;2.60;;;14.10;99.90;;;13.77;100.00;96794.84;5038478;28;20033;-37
2023/07/01 03:09:07;;;;;;;4.57;2.67;;;14.10;99.90;;;13.75;100.00;96792.31;5041306;28;20121;-37
2023/07/01 03:11:36;;;;;;;3.50;2.30;;;14.10;99.90;;;13.78;100.00;96799.19;5034487;28;20032;-37
2023/07/01 03:14:02;;;;;;;5.07;3.00;;;14.10;99.90;;;13.71;100.00;96787.25;5037663;28;20282;-37
2023/07/01 03:16:30;;;;;;;3.70;2.50;;;14.10;99.90;;;13.76;100.00;96801.09;5037437;28;20029;-37
2023/07/01 03:18:58;;;;;;;8.63;2.72;;;14.10;99.90;;;13.77;100.00;96801.97;5040241;28;20025;-37
2023/07/01 03:21:24;;;;;;;4.40;2.75;;;14.10;99.90;;;13.76;100.00;96803.75;5038085;28;20326;-37
2023/07/01 03:23:50;;;;;;;4.25;2.50;;;14.10;99.90;;;13.72;100.00;96792.47;5043386;28;20039;-37
2023/07/01 03:26:16;;;;;;;3.33;2.40;;;14.10;99.90;;;13.68;100.00;96811.31;5041221;28;20742;-37
2023/07/01 03:28:42;;;;;;;5.88;2.80;;;14.00;99.90;;;13.66;100.00;96807.91;5037386;28;20039;-37
2023/07/01 03:31:08;;;;;;;6.43;2.55;;;14.00;99.90;;;13.67;100.00;96804.28;5035189;28;20204;-37
2023/07/01 03:33:34;;;;;;;3.58;2.75;;;14.00;99.90;;;13.67;100.00;96791.03;5043562;28;20068;-37
2023/07/01 03:36:00;;;;;;;5.18;2.88;;;14.00;99.90;;;13.70;100.00;96798.81;5041837;28;20367;-37
2023/07/01 03:38:25;;;;;;;3.75;2.90;;;14.00;99.90;;;13.74;100.00;96792.38;5037571;28;20078;-37
2023/07/01 03:40:51;;;;;;;4.20;2.75;;;14.00;99.90;;;13.75;100.00;96796.75;5040836;28;20056;-37
2023/07/01 03:43:17;;;;;;;4.25;2.53;;;14.00;99.90;;;13.78;100.00;96801.84;5037720;28;20035;-37
2023/07/01 03:45:43;;;;;;;3.55;2.55;;;14.10;99.90;;;13.73;100.00;96793.34;5032380;28;20036;-37
2023/07/01 03:48:08;;;;;;;3.33;2.67;;;14.10;99.90;;;13.72;100.00;96786.31;5039376;28;20585;-37
2023/07/01 03:50:34;;;;;;;4.97;2.50;;;14.10;99.90;;;13.73;100.00;96788.88;5038017;28;20085;-37
2023/07/01 03:53:00;;;;;;;3.53;2.60;;;14.10;99.90;;;13.74;100.00;96800.34;5045671;28;20040;-37
2023/07/01 03:55:26;;;;;;;3.67;2.53;;;14.10;99.90;;;13.72;100.00;96789.81;5041499;28;20039;-37
2023/07/01 03:57:51;;;;;;;4.10;2.75;;;14.10;99.90;;;13.77;100.00;96799.31;5035991;28;20481;-37
2023/07/01 04:00:17;;;;;;;4.13;3.00;;;14.10;99.90;;;13.72;100.00;96783.69;5037085;28;20047;-37
2023/07/01 04:02:47;;;;;;;3.40;2.60;;;14.10;99.90;;;13.78;100.00;96793.06;5039741;28;20060;-37
2023/07/01 04:05:13;;;;;;;4.18;3.15;;;14.10;99.90;;;13.77;100.00;96794.03;5036305;28;20185;-37
2023/07/01 04:07:44;;;;;;;7.40;3.10;;;14.10;99.90;;;13.74;100.00;96795.03;5038338;28;20028;-37
2023/07/01 04:10:10;;;;;;;4.17;2.90;;;14.10;99.90;;;13.80;100.00;96792.03;5043613;28;20032;-37
2023/07/01 04:12:38;;;;;;;3.65;2.70;;;14.10;99.90;;;13.85;100.00;96797.88;5039869;28;20029;-37
2023/07/01 04:15:09;;;;;;;3.65;2.72;;;14.20;99.90;;;13.88;100.00;96794.22;5031523;28;20112;-37
2023/07/01 04:17:45;;;;;;;4.60;2.88;;;14.20;99.90;;;13.90;100.00;96798.47;5039724;28;20032;-37
2023/07/01 04:20:13;;;;;;;3.90;2.50;;;14.30;99.90;;;13.96;100.00;96794.59;5040926;28;20033;-37
2023/07/01 04:22:39;;;;;;;4.28;2.55;;;14.30;99.90;;;13.95;100.00;96787.59;5040626;28;20913;-37
2023/07/01 04:25:06;;;;;;;3.70;2.70;;;14.30;99.90;;;14.04;100.00;96795.00;5047309;28;20025;-37
2023/07/01 04:27:33;;;;;;;6.07;3.25;;;14.30;99.90;;;14.08;100.00;96788.56;5043325;28;20571;-37
2023/07/01 04:29:58;;;;;;;3.67;2.95;;;14.40;99.90;;;14.12;100.00;96784.78;5044300;28;20094;-37
2023/07/01 04:32:24;;;;;;;4.82;2.83;;;14.40;99.90;;;14.18;100.00;96788.88;5044562;28;20045;-37
2023/07/01 04:34:50;;;;;;;3.92;2.70;;;14.50;99.90;;;14.22;100.00;96794.84;5042678;28;20031;-37
2023/07/01 04:37:16;;;;;;;5.10;2.78;;;14.50;99.90;;;14.29;100.00;96796.16;5040813;28;20323;-37
2023/07/01 04:39:42;;;;;;;6.35;2.80;;;14.60;99.90;;;14.29;100.00;96790.84;5044411;28;20028;-37
2023/07/01 04:42:07;;;;;;;3.58;2.53;;;14.60;99.90;;;14.29;100.00;96782.91;5044146;28;20763;-37
2023/07/01 04:44:33;;;;;;;5.47;2.80;;;14.70;99.90;;;14.41;100.00;96795.41;5038977;28;20033;-37
2023/07/01 04:46:59;;;;;;;3.20;2.40;;;14.70;99.90;;;14.45;100.00;96786.31;5040319;28;20036;-37
2023/07/01 04:49:25;;;;;;;5.93;3.00;;;14.80;99.90;;;14.55;100.00;96794.53;5044742;28;20121;-37
2023/07/01 04:51:52;;;;;;;3.95;2.88;;;14.90;99.90;;;14.61;100.00;96786.22;5045844;28;20033;-37
2023/07/01 04:54:18;;;;;;;3.88;2.63;;;14.90;99.90;;;14.65;100.00;96782.44;5042120;28;20386;-37
2023/07/01 04:56:44;;;;;;;3.60;2.67;;;14.90;99.90;;;14.76;100.00;96788.88;5042109;28;20029;-37
2023/07/01 04:59:09;;;;;;;4.43;2.70;;;15.00;99.90;;;14.81;100.00;96786.78;5044099;28;20445;-37
2023/07/01 05:01:35;;;;;;;3.83;2.85;;;15.10;99.90;;;14.78;100.00;96774.53;5042266;28;20017;-37
2023/07/01 05:04:01;;;;;;;2.60;2.35;;;15.10;99.90;;;14.95;100.00;96789.41;5041380;28;20682;-37
2023/07/01 05:06:27;;;;;;;3.58;2.75;;;15.20;99.90;;;15.02;100.00;96788.06;5037763;28;20059;-37
2023/07/01 05:08:53;;;;;;;2.42;1.98;;;15.30;99.90;;;15.08;100.00;96785.00;5039642;28;20025;-38
2023/07/01 05:11:19;;;;;;;4.15;2.90;;;15.40;99.90;;;15.15;100.00;96789.91;5037976;28;20052;-37
2023/07/01 05:13:46;;;;;;;2.88;2.58;;;15.40;99.90;;;15.23;100.00;96790.25;5036583;28;20132;-37
2023/07/01 05:16:12;;;;;;;6.68;2.80;;;15.50;99.90;;;15.31;100.00;96798.59;5041519;28;20835;-37
2023/07/01 05:18:37;;;;;;;3.95;2.40;;;15.60;99.90;;;15.40;100.00;96787.34;5042441;28;20020;-37
2023/07/01 05:21:03;;;;;;;3.20;2.70;;;15.60;99.90;;;15.50;100.00;96787.56;5043582;28;20060;-37
2023/07/01 05:23:29;;;;;;;4.88;2.35;;;15.80;99.90;;;15.59;100.00;96789.63;5045441;28;20024;-37
2023/07/01 05:25:55;;;;;;;3.92;2.33;;;15.90;99.90;;;15.72;100.00;96780.81;5035731;28;20028;-37
2023/07/01 05:28:21;;;;;;;4.05;2.80;;;16.00;99.90;;;16.00;100.00;96795.78;5037147;28;20124;-37
2023/07/01 05:30:47;;;;;;;6.30;2.58;;;16.10;99.90;;;16.20;100.00;96789.09;5038799;28;20514;-37
2023/07/01 05:33:13;;;;;;;5.25;2.67;;;16.30;99.90;;;16.58;100.00;96801.50;5040120;28;20478;-37
2023/07/01 05:35:38;;;;;;;4.47;2.38;;;16.50;99.90;;;17.10;100.00;96795.16;5038674;28;20151;-37
2023/07/01 05:38:12;;;;;;;5.65;2.60;;;16.80;99.90;;;17.36;100.00;96805.72;5040057;28;20507;-37
2023/07/01 05:40:38;;;;;;;3.90;2.38;;;17.10;99.90;;;17.30;100.00;96799.03;5039167;28;20066;-37
2023/07/01 05:43:04;;;;;;;4.22;2.22;;;17.20;99.90;;;17.21;100.00;96797.03;5041278;28;20605;-37
2023/07/01 05:45:30;;;;;;;3.45;2.20;;;17.20;99.90;;;17.15;100.00;96793.00;5037224;28;20033;-37
2023/07/01 05:47:56;;;;;;;3.03;1.92;;;17.20;99.90;;;17.11;100.00;96780.03;5039919;28;20031;-37
2023/07/01 05:50:22;;;;;;;4.85;2.10;;;17.30;99.90;;;17.14;100.00;96791.31;5042034;28;20032;-37
2023/07/01 05:52:48;;;;;;;2.55;2.05;;;17.40;99.90;;;17.13;100.00;96783.41;5039981;28;20032;-37
2023/07/01 05:55:14;;;;;;;3.67;2.35;;;17.40;99.90;;;17.27;100.00;96793.06;5040277;28;20028;-37
2023/07/01 05:57:39;;;;;;;2.15;1.88;;;17.50;99.90;;;17.36;100.00;96793.22;5038975;28;20037;-37
2023/07/01 06:00:07;;;;;;;2.80;1.83;;;17.60;99.90;;;17.46;100.00;96793.41;5036762;28;20479;-37
2023/07/01 06:02:32;;;;;;;2.58;1.83;;;17.60;99.90;;;17.55;100.00;96787.41;5040189;28;20036;-37
2023/07/01 06:04:58;;;;;;;4.03;2.00;;;17.70;99.90;;;17.67;100.00;96790.94;5042035;28;20418;-37
2023/07/01 06:07:24;;;;;;;2.83;1.83;;;17.90;99.90;;;17.81;100.00;96792.56;5042109;28;20124;-37
2023/07/01 06:09:50;;;;;;;4.57;2.20;;;18.00;99.90;;;17.93;97.46;96788.16;5040567;28;20028;-37
2023/07/01 06:12:16;;;;;;;2.90;1.77;;;18.10;99.90;;;17.99;93.97;96795.69;5040030;28;20056;-37
2023/07/01 06:14:42;;;;;;;3.08;1.70;;;18.20;99.90;;;17.97;87.73;96786.94;5038461;28;20067;-37
2023/07/01 06:17:08;;;;;;;4.13;2.08;;;18.30;99.90;;;18.17;90.89;96801.41;5038842;28;20337;-37
2023/07/01 06:19:34;;;;;;;3.10;1.83;;;18.30;99.90;;;18.31;89.97;96793.19;5038137;28;20036;-37
2023/07/01 06:21:59;;;;;;;3.70;1.70;;;18.40;99.90;;;18.41;88.02;96792.47;5042516;28;20090;-37
2023/07/01 06:24:25;;;;;;;3.10;1.98;;;18.60;99.90;;;18.48;82.06;96786.56;5040976;28;20033;-37
2023/07/01 06:26:51;;;;;;;3.90;1.73;;;18.70;99.90;;;18.64;83.54;96788.00;5043776;28;20028;-37
2023/07/01 06:29:16;;;;;;;3.65;1.58;;;18.70;99.90;;;18.74;82.98;96782.78;5040627;28;20038;-37
2023/07/01 06:31:42;;;;;;;3.35;1.88;;;18.90;99.90;;;18.86;82.75;96776.47;5037498;28;20021;-37
2023/07/01 06:34:16;;;;;;;4.00;1.67;;;18.90;99.90;;;18.98;82.73;96771.97;5040650;28;20394;-37
2023/07/01 06:36:43;;;;;;;3.55;1.80;;;19.10;99.90;;;19.14;75.54;96791.13;5040238;28;20060;-37
2023/07/01 06:39:09;;;;;;;4.00;1.95;;;19.20;99.90;;;19.27;72.45;96791.84;5040323;28;21042;-38
2023/07/01 06:41:35;;;;;;;6.70;1.58;;;19.30;99.90;;;19.35;68.92;96788.53;5043120;28;20051;-37
2023/07/01 06:44:02;;;;;;;2.88;1.40;;;19.40;99.90;;;19.49;65.71;96798.09;5044918;28;20482;-37
2023/07/01 06:46:27;;;;;;;2.50;1.48;;;19.50;99.90;;;19.58;68.01;96791.97;5039196;28;20036;-37
2023/07/01 06:48:53;;;;;;;2.63;1.42;;;19.60;99.90;;;19.69;65.03;96792.91;5042995;28;20040;-37
2023/07/01 06:51:19;;;;;;;3.25;1.67;;;19.70;99.90;;;19.80;66.78;96790.22;5040517;28;20106;-37
2023/07/01 06:53:44;;;;;;;3.22;1.48;;;19.90;99.90;;;19.99;65.95;96786.81;5043491;28;20037;-37
2023/07/01 06:56:10;;;;;;;2.35;1.45;;;19.90;99.90;;;20.15;64.22;96775.66;5036733;28;20486;-37
2023/07/01 06:58:36;;;;;;;3.15;1.50;;;20.10;99.90;;;20.29;64.03;96783.34;5040744;28;20041;-37
2023/07/01 07:01:03;;;;;;;2.10;1.50;;;20.20;99.90;;;20.39;61.96;96783.41;5041149;28;20028;-37
2023/07/01 07:03:29;;;;;;;2.42;1.70;;;20.30;99.90;;;20.49;60.35;96780.78;5040428;28;20025;-37
2023/07/01 07:05:55;;;;;;;3.17;1.55;;;20.40;99.90;;;20.43;58.64;96768.78;5038891;28;20452;-37
2023/07/01 07:08:23;;;;;;;2.92;1.55;;;20.50;99.90;;;20.50;57.16;96777.97;5042395;28;20028;-37
2023/07/01 07:10:49;;;;;;;3.83;1.52;;;20.60;99.90;;;20.55;57.87;96774.91;5043654;28;20036;-37
2023/07/01 07:13:16;;;;;;;2.13;1.38;;;20.60;99.90;;;20.65;55.40;96783.84;5038697;28;20048;-37
2023/07/01 07:15:42;;;;;;;6.35;1.60;;;20.70;99.90;;;20.57;54.17;96784.47;5041699;28;20024;-36
2023/07/01 07:18:09;;;;;;;8.77;1.70;;;20.70;99.90;;;20.66;53.22;96787.38;5040404;28;20068;-36
2023/07/01 07:20:37;;;;;;;2.63;1.40;;;20.80;99.90;;;20.65;55.58;96778.47;5038222;28;20034;-37
2023/07/01 07:23:05;;;;;;;2.33;1.48;;;20.80;99.90;;;20.83;57.72;96769.81;5039512;28;20032;-36
2023/07/01 07:25:32;;;;;;;5.65;2.05;;;20.90;99.90;;;20.94;56.72;96759.84;5027531;28;20035;-37
2023/07/01 07:27:58;;;;;;;3.75;1.60;;;21.20;99.90;;;21.31;54.79;96764.56;5020967;28;20036;-37
2023/07/01 07:30:23;;;;;;;3.50;1.60;;;21.50;99.90;;;21.58;52.95;96764.91;5032965;28;20039;-37
2023/07/01 07:32:49;;;;;;;1.98;1.50;;;21.80;99.50;;;21.92;52.20;96763.47;5039095;28;20032;-37
2023/07/01 07:35:15;;;;;;;2.38;1.48;;;22.00;99.00;;;22.21;51.51;96754.50;5028647;28;20383;-36
2023/07/01 07:37:42;;;;;;;2.72;1.63;;;22.30;98.80;;;22.21;49.71;96753.69;5022204;28;21001;-37
2023/07/01 07:40:08;;;;;;;6.35;1.60;;;22.40;97.20;;;22.10;50.90;96760.06;5030878;28;20387;-37
2023/07/01 07:42:35;;;;;;;2.80;1.60;;;22.30;97.70;;;22.24;50.49;96754.22;5030232;28;20522;-37
2023/07/01 07:45:04;;;;;;;2.03;1.60;;;22.30;97.70;;;22.12;48.52;96753.53;5035982;28;20443;-37
2023/07/01 07:47:30;;;;;;;4.05;1.70;;;22.30;96.20;;;22.16;49.09;96756.78;5031048;28;20119;-37
2023/07/01 07:49:56;;;;;;;2.20;1.45;;;22.40;96.30;;;22.38;48.66;96757.47;5033383;28;20044;-37
2023/07/01 07:52:22;;;;;;;1.80;1.48;;;22.50;96.20;;;22.59;48.65;96752.72;5035539;28;20133;-37
2023/07/01 07:54:48;;;;;;;2.72;1.33;;;22.60;95.80;;;22.71;47.48;96755.25;5037258;28;20052;-37
2023/07/01 07:57:14;;;;;;;2.70;1.50;;;22.80;95.20;;;22.68;47.56;96751.00;5036737;28;20032;-37
2023/07/01 07:59:43;;;;;;;3.90;1.50;;;22.90;94.80;;;22.87;47.80;96747.38;5036399;28;20394;-37
2023/07/01 08:02:10;;;;;;;2.20;1.50;;;23.00;94.60;;;22.88;46.52;96749.09;5039324;28;20499;-37
2023/07/01 08:04:36;;;;;;;3.58;2.00;;;23.10;93.90;;;22.90;46.72;96751.59;5037287;28;20035;-37
2023/07/01 08:07:02;;;;;;;2.60;1.40;;;23.10;94.00;;;22.89;47.36;96748.06;5030392;28;20044;-36
2023/07/01 08:09:31;;;;;;;4.55;1.70;;;23.10;94.20;;;22.84;47.03;96743.16;5022935;28;20064;-37
2023/07/01 08:11:58;;;;;;;3.58;1.80;;;23.00;93.90;;;22.68;47.46;96740.25;5030218;28;20032;-37
2023/07/01 08:14:25;;;;;;;5.18;1.88;;;22.90;94.10;;;22.48;50.89;96739.47;5027355;28;20041;-37
2023/07/01 08:16:53;;;;;;;3.15;1.58;;;22.80;96.40;;;22.42;49.73;96729.34;5035788;28;20159;-39
2023/07/01 08:19:18;;;;;;;2.72;1.67;;;22.60;95.00;;;22.41;50.50;96731.16;5031319;28;20033;-38
2023/07/01 08:21:44;;;;;;;4.43;1.70;;;22.50;95.80;;;22.42;49.99;96729.34;5033544;28;20513;-39
2023/07/01 08:24:10;;;;;;;5.18;1.80;;;22.50;95.20;;;22.40;48.85;96716.03;5040070;28;20044;-38
2023/07/01 08:26:36;;;;;;;4.13;1.80;;;22.50;94.90;;;22.40;49.97;96731.31;5039001;28;20447;-39
2023/07/01 08:29:03;;;;;;;5.50;1.90;;;22.50;95.10;;;22.20;50.60;96720.63;5024535;28;20323;-40
2023/07/01 08:31:31;;;;;;;1.90;1.70;;;22.40;95.30;;;22.15;51.65;96722.88;5013476;28;20028;-40
2023/07/01 08:33:57;;;;;;;1.67;1.42;;;22.20;95.70;;;22.18;52.05;96727.97;5027753;28;20445;-40
2023/07/01 08:36:24;;;;;;;3.53;1.90;;;22.20;96.20;;;22.15;52.87;96717.50;5034301;28;21254;-40
2023/07/01 08:38:49;;;;;;;4.00;1.70;;;22.30;96.40;;;22.29;51.68;96722.44;5042297;28;20047;-38
2023/07/01 08:41:16;;;;;;;3.67;1.75;;;22.30;95.80;;;22.15;50.99;96714.00;5028260;28;20029;-40
2023/07/01 08:43:47;;;;;;;3.38;1.70;;;22.40;95.50;;;22.20;50.95;96715.25;5022293;28;21632;-39
2023/07/01 08:46:15;;;;;;;2.60;1.92;;;22.30;95.30;;;22.09;51.16;96696.59;5038797;28;20124;-38
2023/07/01 08:48:44;;;;;;;4.22;1.80;;;22.30;95.40;;;22.20;49.52;96696.44;5030107;28;20037;-39
2023/07/01 08:51:30;;;;;;;3.05;1.70;;;22.30;94.70;;;22.07;47.73;96712.00;5026337;28;20033;-36
2023/07/01 08:53:59;;;;;;;2.72;1.52;;;22.40;93.10;;;22.09;47.53;96694.78;5023491;28;20036;-39
2023/07/01 08:56:25;;;;;;;2.35;1.63;;;22.40;93.00;;;22.47;48.04;96703.72;5021743;28;20396;-38
2023/07/01 08:58:51;;;;;;;2.45;1.80;;;22.60;93.70;;;22.75;46.82;96710.94;5033592;28;20076;-38
2023/07/01 09:01:18;;;;;;;2.72;1.60;;;22.90;93.10;;;22.98;45.87;96698.78;5037103;28;20071;-38
2023/07/01 09:03:47;;;;;;;4.43;1.67;;;23.10;92.30;;;23.10;45.10;96694.06;5039536;28;20060;-38
2023/07/01 09:06:13;;;;;;;3.60;1.80;;;23.20;91.50;;;22.96;46.19;96692.69;5029393;28;20032;-38
2023/07/01 09:08:39;;;;;;;5.22;1.65;;;23.20;92.00;;;22.91;46.21;96686.94;5037560;28;20363;-38
2023/07/01 09:11:15;;;;;;;1.80;1.45;;;23.10;91.90;;;22.77;46.52;96693.66;5041509;28;20033;-36
2023/07/01 09:13:42;;;;;;;3.72;1.60;;;22.90;92.20;;;22.90;46.45;96684.38;5033878;28;20654;-36
2023/07/01 09:16:08;;;;;;;3.15;2.03;;;23.00;92.30;;;22.88;46.85;96669.28;5031577;28;20513;-36
2023/07/01 09:18:35;;;;;;;1.73;1.50;;;23.10;92.10;;;22.99;44.61;96684.34;5037535;28;20640;-37
2023/07/01 09:21:01;;;;;;;3.03;1.48;;;23.10;90.90;;;22.96;44.10;96686.50;5036348;28;20060;-36
2023/07/01 09:23:34;;;;;;;3.08;1.40;;;23.20;90.10;;;23.09;45.07;96675.38;5033312;28;20560;-36
2023/07/01 09:26:10;;;;;;;;;;;23.20;91.00;;;23.36;44.01;96678.00;5041333;28;20039;-36
2023/07/01 09:28:37;;;;;;;3.95;1.88;;;23.40;90.40;;;23.53;43.73;96680.84;5040602;28;20267;-36
2023/07/01 09:31:06;;;;;;;3.22;1.50;;;23.60;90.20;;;23.58;42.65;96673.13;5040479;28;20032;-36
2023/07/01 09:33:32;;;;;;;5.38;1.50;;;23.70;88.60;;;23.65;42.34;96668.81;5031088;28;20025;-36
2023/07/01 09:36:01;;;;;;;1.80;1.45;;;23.80;88.10;;;23.58;42.80;96676.69;5033603;28;20033;-36
2023/07/01 09:38:32;;;;;;;2.40;1.60;;;23.80;87.60;;;23.58;42.29;96665.06;4991482;28;1052926;-36
2023/07/01 09:41:17;;;;;;;8.02;2.20;;;23.80;87.10;;;23.66;40.85;96667.84;5028814;28;20587;-36
2023/07/01 09:43:43;;;;;;;2.92;1.70;;;23.80;84.90;;;23.72;40.95;96666.34;5026318;28;20487;-36
2023/07/01 09:46:09;;;;;;;3.35;1.98;;;23.80;85.40;;;23.51;39.17;96664.00;5026756;28;20025;-38
2023/07/01 09:48:36;;;;;;;3.63;1.83;;;23.80;81.10;;;23.55;40.44;96679.69;5031299;28;20024;-38
2023/07/01 09:51:06;;;;;;;3.60;2.45;;;23.70;82.70;;;23.35;39.24;96662.88;5034654;28;20115;-39
2023/07/01 09:53:34;;;;;;;2.38;1.90;;;23.70;80.10;;;23.41;40.09;96654.16;5038946;28;21787;-38
2023/07/01 09:56:03;;;;;;;3.58;1.90;;;23.60;81.30;;;23.42;40.37;96663.09;5039082;28;20446;-38
2023/07/01 09:58:33;;;;;;;2.40;1.50;;;23.60;82.70;;;23.48;40.00;96646.31;5038639;28;20029;-37
2023/07/01 10:01:00;;;;;;;3.30;1.90;;;23.60;81.80;;;23.54;39.81;96653.75;5039139;28;20094;-38
2023/07/01 10:03:27;;;;;;;4.50;2.22;;;23.80;81.70;;;23.73;39.11;96657.28;5040453;28;20184;-39
2023/07/01 10:05:54;;;;;;;4.05;2.35;;;23.90;80.40;;;23.95;38.26;96651.41;5022518;28;20573;-38
2023/07/01 10:08:20;;;;;;;3.45;2.15;;;24.10;79.20;;;24.15;37.90;96653.88;5034856;28;21916;-38
2023/07/01 10:11:22;;;;;;;3.17;2.45;;;24.30;77.50;;;24.10;38.55;96649.00;5036273;28;20115;-38
2023/07/01 10:13:53;;;;;;;3.53;1.98;;;24.40;77.10;;;24.13;38.07;96645.94;5036557;28;20040;-38
2023/07/01 10:16:19;;;;;;;10.52;2.13;;;24.40;76.90;;;24.08;37.55;96639.34;5035837;28;20040;-38